Time;durP1;ratioP1;P1;durP2;ratioP2;P2;SDS_P1;SDS_P2;PMS_P1;PMS_P2;Temp;Humidity;BMP_temperature;BMP_pressure;BME280_temperature;BME280_humidity;BME280_pressure;Samples;Min_cycle;Max_cycle;Signal;HPM_P1;HPM_P2
2021/12/10 00:01:52;;;;;;;27.00;9.55;;;;;;;7.43;63.17;99721.09;5072406;28;20052;-63
2021/12/10 00:04:20;;;;;;;22.95;8.98;;;;;;;6.95;65.14;99734.47;5069937;28;20035;-60
2021/12/10 00:06:53;;;;;;;21.67;9.32;;;;;;;7.40;63.33;99718.97;5071153;28;20021;-62
2021/12/10 00:09:24;;;;;;;21.15;10.13;;;;;;;6.98;64.86;99723.75;5071705;28;20029;-64
2021/12/10 00:11:53;;;;;;;25.90;10.20;;;;;;;7.29;63.55;99720.34;5072309;28;20052;-63
2021/12/10 00:14:25;;;;;;;29.30;10.45;;;;;;;7.34;63.58;99713.97;5071728;28;20036;-63
2021/12/10 00:16:50;;;;;;;26.15;9.95;;;;;;;7.78;61.82;99696.78;5070944;28;20053;-61
2021/12/10 00:21:57;;;;;;;28.15;10.77;;;;;;;7.29;63.54;99692.28;5071220;28;20049;-62
2021/12/10 00:24:27;;;;;;;28.70;10.40;;;;;;;7.53;62.51;99683.78;5070599;28;20033;-62
2021/12/10 00:26:53;;;;;;;25.15;11.15;;;;;;;7.44;63.21;99687.25;5071114;28;20032;-63
2021/12/10 00:29:19;;;;;;;24.50;12.00;;;;;;;7.32;63.06;99681.56;5070516;28;20048;-62
2021/12/10 00:31:53;;;;;;;30.02;11.15;;;;;;;7.56;63.31;99683.16;5070746;28;20032;-63
2021/12/10 00:34:24;;;;;;;25.95;12.48;;;;;;;6.90;64.49;99672.72;5071382;28;20036;-61
2021/12/10 00:36:54;;;;;;;23.70;10.70;;;;;;;7.08;64.13;99668.22;5070881;28;20092;-64
2021/12/10 00:39:45;;;;;;;28.17;12.38;;;;;;;7.18;63.95;99650.81;5071292;28;20481;-63
2021/12/10 00:42:14;;;;;;;31.88;12.73;;;;;;;7.17;64.32;99649.19;5070183;28;20040;-61
2021/12/10 00:44:40;;;;;;;26.90;11.77;;;;;;;7.20;63.14;99640.41;5071611;28;20064;-61
2021/12/10 00:47:05;;;;;;;26.90;11.95;;;;;;;7.10;63.54;99637.94;5071640;28;20033;-63
2021/12/10 00:49:31;;;;;;;23.05;11.20;;;;;;;7.32;63.07;99632.47;5071102;28;20029;-65
2021/12/10 00:51:57;;;;;;;28.65;12.02;;;;;;;7.15;63.38;99624.19;5071692;28;20080;-62
2021/12/10 00:54:22;;;;;;;24.63;12.38;;;;;;;7.46;62.80;99624.22;5070109;28;20052;-60
2021/12/10 00:56:48;;;;;;;26.02;11.45;;;;;;;7.15;63.57;99619.53;5071403;28;20052;-64
2021/12/10 00:59:15;;;;;;;31.58;11.75;;;;;;;6.87;64.51;99610.66;5071482;28;20028;-62
2021/12/10 01:01:41;;;;;;;16.10;8.57;;;;;;;6.32;65.86;99604.25;5070515;28;20036;-63
2021/12/10 01:04:09;;;;;;;25.80;11.82;;;;;;;6.88;63.39;99598.66;5071318;28;20102;-63
2021/12/10 01:06:37;;;;;;;26.15;11.48;;;;;;;7.17;63.18;99592.75;5069905;28;20791;-63
2021/12/10 01:09:09;;;;;;;27.05;13.30;;;;;;;7.24;62.69;99584.97;5071401;28;20048;-64
2021/12/10 01:11:41;;;;;;;26.67;11.07;;;;;;;7.04;63.01;99591.72;5069936;28;20059;-64
2021/12/10 01:14:23;;;;;;;30.02;12.73;;;;;;;7.11;63.13;99576.84;5071220;28;20021;-60
2021/12/10 01:25:12;;;;;;;23.50;12.68;;;;;;;7.27;62.12;99572.63;5071256;28;20087;-62
2021/12/10 01:27:41;;;;;;;27.85;12.40;;;;;;;7.06;62.38;99559.53;5070593;28;20033;-63
2021/12/10 01:30:20;;;;;;;28.15;13.13;;;;;;;6.97;62.98;99545.03;5069980;28;20029;-62
2021/12/10 01:32:55;;;;;;;27.30;14.88;;;;;;;6.22;64.83;99546.50;5071124;28;20032;-61
2021/12/10 01:35:35;;;;;;;19.17;9.95;;;;;;;6.70;64.04;99549.47;5070622;28;20093;-64
2021/12/10 01:38:04;;;;;;;31.48;15.07;;;;;;;6.30;63.93;99541.16;5070980;28;20029;-62
2021/12/10 01:40:30;;;;;;;23.58;12.75;;;;;;;7.22;61.97;99545.47;5069473;28;20033;-62
2021/12/10 01:43:05;;;;;;;28.17;12.60;;;;;;;6.51;63.67;99537.97;5070806;28;20035;-64
2021/12/10 01:45:36;;;;;;;25.60;12.95;;;;;;;6.96;62.67;99535.25;5070621;28;20017;-61
2021/12/10 01:48:06;;;;;;;25.90;12.73;;;;;;;6.50;63.50;99534.41;5071066;28;20032;-63
2021/12/10 01:50:33;;;;;;;27.85;12.82;;;;;;;7.05;62.27;99527.94;5069396;28;20025;-62
2021/12/10 01:53:00;;;;;;;27.60;11.70;;;;;;;6.88;62.96;99519.66;5073018;28;20030;-60
2021/12/10 01:55:29;;;;;;;25.08;11.18;;;;;;;7.01;62.52;99516.03;5056666;28;20283;-61
2021/12/10 01:57:56;;;;;;;23.90;11.40;;;;;;;6.90;62.39;99509.22;5074905;28;20021;-64
2021/12/10 02:00:25;;;;;;;25.90;11.35;;;;;;;7.21;61.13;99513.91;5056915;28;20043;-62
2021/12/10 02:02:50;;;;;;;24.67;12.15;;;;;;;6.44;63.88;99502.19;5074760;28;20033;-61
2021/12/10 02:05:16;;;;;;;26.80;10.15;;;;;;;6.50;63.80;99490.06;5078157;28;20108;-64
2021/12/10 02:07:42;;;;;;;26.00;10.65;;;;;;;6.91;62.46;99483.59;5086423;28;20033;-60
2021/12/10 02:10:09;;;;;;;23.55;10.88;;;;;;;6.80;62.83;99479.53;5069208;28;20033;-62
2021/12/10 02:12:35;;;;;;;23.25;12.25;;;;;;;6.42;64.33;99471.75;5082922;28;20017;-62
2021/12/10 02:15:02;;;;;;;24.15;10.43;;;;;;;7.05;62.65;99473.44;5082134;28;20032;-64
2021/12/10 02:17:36;;;;;;;26.48;11.45;;;;;;;5.90;65.50;99467.44;5082634;28;20060;-65
2021/12/10 02:20:14;;;;;;;20.20;9.57;;;;;;;6.82;63.20;99458.22;5080533;28;20028;-61
2021/12/10 02:22:39;;;;;;;18.50;8.30;;;;;;;6.52;63.67;99450.53;5085947;28;20047;-65
2021/12/10 02:25:06;;;;;;;21.05;8.88;;;;;;;6.49;63.91;99450.31;5086539;28;20084;-63
2021/12/10 02:27:32;;;;;;;18.13;8.80;;;;;;;6.91;62.49;99450.91;5084533;28;20042;-63
2021/12/10 02:29:57;;;;;;;19.63;8.40;;;;;;;6.77;63.26;99442.03;5079206;28;20056;-63
2021/12/10 02:32:25;;;;;;;19.90;8.27;;;;;;;6.76;62.81;99437.69;5083135;28;20044;-61
2021/12/10 02:34:52;;;;;;;19.48;9.18;;;;;;;6.79;63.02;99442.50;5083251;28;20017;-64
2021/12/10 02:37:18;;;;;;;20.08;8.50;;;;;;;6.70;63.83;99432.38;5085023;28;20031;-62
2021/12/10 02:39:44;;;;;;;17.63;8.00;;;;;;;6.86;62.96;99419.16;5083602;28;20049;-62
2021/12/10 02:42:09;;;;;;;18.50;8.32;;;;;;;7.10;62.18;99417.19;5084685;28;20039;-61
2021/12/10 02:44:34;;;;;;;19.33;7.85;;;;;;;7.04;62.53;99406.41;5083514;28;20025;-63
2021/12/10 02:47:00;;;;;;;18.83;7.82;;;;;;;7.11;62.41;99410.59;5081954;28;20104;-64
2021/12/10 02:49:27;;;;;;;14.43;7.00;;;;;;;7.08;62.33;99412.06;5082867;28;20021;-64
2021/12/10 02:51:53;;;;;;;14.10;7.75;;;;;;;7.05;62.40;99396.31;5081222;28;20088;-63
2021/12/10 02:54:23;;;;;;;14.73;6.88;;;;;;;6.83;63.08;99394.47;5067547;28;20017;-62
2021/12/10 02:56:51;;;;;;;17.17;6.80;;;;;;;6.57;63.84;99386.97;5083900;28;20025;-63
2021/12/10 02:59:17;;;;;;;16.27;7.03;;;;;;;7.11;62.02;99384.16;5081768;28;20028;-63
2021/12/10 03:01:46;;;;;;;15.68;7.22;;;;;;;6.81;63.00;99375.72;5081594;28;20037;-62
2021/12/10 03:04:13;;;;;;;21.88;7.85;;;;;;;6.46;63.90;99366.53;5084326;28;20448;-62
2021/12/10 03:06:43;;;;;;;;;;;;;;;7.21;61.87;99366.72;5088037;28;20496;-62
2021/12/10 03:09:09;;;;;;;13.93;5.75;;;;;;;6.79;63.53;99366.25;5081242;28;19919;-61
2021/12/10 03:11:37;;;;;;;23.00;7.45;;;;;;;6.88;63.73;99364.34;5087460;28;20446;-64
2021/12/10 03:14:09;;;;;;;16.67;6.82;;;;;;;7.22;62.73;99365.59;5080454;28;20020;-63
2021/12/10 03:16:36;;;;;;;18.20;7.05;;;;;;;7.20;63.19;99359.66;5086273;28;20040;-65
2021/12/10 03:19:02;;;;;;;;;;;;;;;6.93;63.41;99364.22;5082107;28;20029;-64
2021/12/10 03:21:27;;;;;;;14.50;6.07;;;;;;;6.96;64.32;99360.84;5083183;28;19976;-64
2021/12/10 03:23:53;;;;;;;17.95;5.90;;;;;;;6.90;64.10;99353.94;5071192;28;20063;-63
2021/12/10 03:26:21;;;;;;;16.63;6.57;;;;;;;6.66;65.15;99336.06;5092121;28;20029;-62
2021/12/10 03:28:48;;;;;;;15.05;5.60;;;;;;;6.86;64.80;99336.63;5093022;28;20063;-63
2021/12/10 03:31:14;;;;;;;;;;;;;;;7.26;64.12;99331.91;5075763;28;20051;-61
2021/12/10 03:33:41;;;;;;;14.98;6.32;;;;;;;7.28;63.50;99323.44;5074844;28;19928;-64
2021/12/10 03:36:08;;;;;;;14.95;5.90;;;;;;;7.19;63.98;99323.44;5092115;28;20111;-62
2021/12/10 03:38:35;;;;;;;17.50;6.07;;;;;;;6.87;64.87;99311.81;5092967;28;20028;-62
2021/12/10 03:41:00;;;;;;;13.88;5.72;;;;;;;6.96;65.28;99320.00;5075297;28;20062;-61
2021/12/10 03:43:26;;;;;;;14.20;6.15;;;;;;;6.65;65.49;99323.56;5093052;28;20024;-61
2021/12/10 03:45:55;;;;;;;13.88;5.63;;;;;;;6.82;65.39;99313.84;5092435;28;20029;-64
2021/12/10 03:48:26;;;;;;;16.45;5.68;;;;;;;7.24;64.31;99303.41;5091572;28;20051;-62
2021/12/10 03:50:52;;;;;;;15.70;5.93;;;;;;;6.83;65.25;99297.19;5092570;28;20024;-65
2021/12/10 03:53:18;;;;;;;17.70;7.35;;;;;;;6.67;65.93;99294.09;5092919;28;20033;-62
2021/12/10 03:55:46;;;;;;;13.25;6.15;;;;;;;6.78;65.81;99296.56;5091188;28;20099;-64
2021/12/10 03:58:11;;;;;;;;;;;;;;;7.33;64.22;99284.31;5093210;28;20028;-62
2021/12/10 04:00:45;;;;;;;16.70;5.57;;;;;;;6.97;64.96;99288.91;5091364;28;19943;-62
2021/12/10 04:03:13;;;;;;;16.27;5.55;;;;;;;6.78;66.13;99277.50;5092664;28;20052;-63
2021/12/10 04:05:39;;;;;;;17.02;6.15;;;;;;;6.86;64.92;99274.78;5092279;28;20054;-61
2021/12/10 04:08:04;;;;;;;13.90;5.90;;;;;;;6.97;65.78;99264.38;5091259;28;20055;-63
2021/12/10 04:10:30;;;;;;;14.90;5.70;;;;;;;6.98;63.88;99265.97;5092432;28;20036;-64
2021/12/10 04:12:56;;;;;;;14.55;5.90;;;;;;;7.14;64.22;99262.81;5091784;28;20028;-62
2021/12/10 04:15:23;;;;;;;15.77;6.05;;;;;;;7.24;64.07;99254.34;5090577;28;20115;-62
2021/12/10 04:17:54;;;;;;;15.20;5.85;;;;;;;7.08;64.85;99254.00;5090601;28;20028;-63
2021/12/10 04:20:21;;;;;;;11.95;4.78;;;;;;;7.05;64.22;99239.06;5092214;28;20857;-64
2021/12/10 04:22:48;;;;;;;13.15;5.07;;;;;;;6.93;65.11;99241.59;5090611;28;20020;-63
2021/12/10 04:25:16;;;;;;;12.23;5.10;;;;;;;7.08;64.70;99240.38;5091075;28;20024;-62
2021/12/10 04:27:44;;;;;;;12.63;4.78;;;;;;;6.81;65.57;99238.69;5090516;28;20032;-63
2021/12/10 04:30:12;;;;;;;13.73;4.72;;;;;;;7.56;63.11;99228.50;5092000;28;20063;-62
2021/12/10 04:32:38;;;;;;;13.02;5.25;;;;;;;7.39;63.25;99221.13;5092096;28;20021;-62
2021/12/10 04:35:04;;;;;;;8.30;4.40;;;;;;;6.75;65.17;99229.88;5090527;28;20039;-63
2021/12/10 04:37:30;;;;;;;16.42;4.85;;;;;;;6.58;66.39;99214.28;5091775;28;20037;-64
2021/12/10 04:39:55;;;;;;;13.18;4.78;;;;;;;6.69;64.92;99198.47;5090403;28;20059;-65
2021/12/10 04:42:24;;;;;;;9.95;4.05;;;;;;;6.85;65.15;99207.00;5090678;28;20031;-63
2021/12/10 04:44:55;;;;;;;17.10;4.60;;;;;;;7.18;64.40;99196.44;5091208;28;20020;-64
2021/12/10 04:47:21;;;;;;;12.60;4.40;;;;;;;6.95;64.96;99195.81;5091856;28;20032;-63
2021/12/10 04:49:47;;;;;;;10.18;4.07;;;;;;;6.88;65.14;99195.47;5073544;28;20031;-62
2021/12/10 04:52:12;;;;;;;10.85;4.10;;;;;;;6.64;66.23;99196.69;5090516;28;20503;-63
2021/12/10 04:54:38;;;;;;;12.30;4.43;;;;;;;6.87;64.75;99188.41;5090539;28;20032;-61
2021/12/10 04:57:05;;;;;;;10.45;4.10;;;;;;;6.84;66.04;99191.75;5090048;28;20099;-64
2021/12/10 04:59:33;;;;;;;9.38;3.65;;;;;;;7.00;64.98;99187.47;5090512;28;20098;-65
2021/12/10 05:02:00;;;;;;;13.02;3.88;;;;;;;7.14;64.74;99186.50;5091170;28;20032;-63
2021/12/10 05:04:28;;;;;;;9.27;3.78;;;;;;;7.04;64.73;99163.88;5090633;28;20065;-62
2021/12/10 05:06:53;;;;;;;7.80;3.45;;;;;;;7.32;63.79;99170.94;5091037;28;20052;-62
2021/12/10 05:09:20;;;;;;;9.63;3.50;;;;;;;7.38;63.32;99167.72;5091451;28;20024;-65
2021/12/10 05:11:46;;;;;;;9.13;3.60;;;;;;;7.39;63.53;99166.59;5091401;28;20066;-62
2021/12/10 05:14:12;;;;;;;9.77;3.40;;;;;;;7.26;63.74;99164.84;5090345;28;20033;-64
2021/12/10 05:16:43;;;;;;;8.30;3.55;;;;;;;6.88;64.49;99160.03;5091119;28;20046;-64
2021/12/10 05:19:09;;;;;;;10.00;3.53;;;;;;;6.81;65.21;99160.53;5090081;28;20032;-65
2021/12/10 05:21:37;;;;;;;13.23;3.23;;;;;;;7.33;63.62;99156.97;5091236;28;20024;-63
2021/12/10 05:24:05;;;;;;;8.98;3.28;;;;;;;6.95;64.46;99159.56;5089659;28;20063;-64
2021/12/10 05:26:32;;;;;;;9.35;3.35;;;;;;;7.53;63.32;99155.50;5091107;28;20107;-63
2021/12/10 05:28:58;;;;;;;8.30;2.85;;;;;;;7.39;63.33;99149.44;5090571;28;20035;-65
2021/12/10 05:31:24;;;;;;;6.97;2.60;;;;;;;7.41;63.61;99152.63;5091203;28;20039;-63
2021/12/10 05:33:49;;;;;;;9.45;2.83;;;;;;;7.63;63.10;99151.63;5090818;28;20033;-62
2021/12/10 05:36:15;;;;;;;11.00;3.10;;;;;;;7.22;63.32;99150.25;5090041;28;20035;-63
2021/12/10 05:38:40;;;;;;;9.30;2.83;;;;;;;7.75;62.33;99146.31;5091054;28;20031;-64
2021/12/10 05:41:09;;;;;;;8.10;2.15;;;;;;;7.36;63.14;99142.69;5089712;28;20037;-64
2021/12/10 05:43:36;;;;;;;8.27;2.58;;;;;;;7.56;62.96;99149.41;5090057;28;20029;-62
2021/12/10 05:46:02;;;;;;;9.52;3.20;;;;;;;7.00;64.57;99153.94;5090587;28;20044;-64
2021/12/10 05:48:28;;;;;;;8.02;2.53;;;;;;;7.23;63.76;99146.41;5091001;28;20083;-62
2021/12/10 05:50:54;;;;;;;5.30;2.50;;;;;;;7.07;64.33;99141.44;5089531;28;20024;-64
2021/12/10 05:53:20;;;;;;;11.98;3.45;;;;;;;7.20;63.71;99144.34;5089921;28;20058;-62
2021/12/10 05:55:45;;;;;;;7.95;3.00;;;;;;;7.20;63.71;99136.16;5089821;28;20021;-62
2021/12/10 05:58:12;;;;;;;9.30;2.70;;;;;;;7.10;63.14;99150.13;5089425;28;20092;-64
2021/12/10 06:00:43;;;;;;;9.35;2.40;;;;;;;7.54;62.85;99135.31;5089851;28;20025;-63
2021/12/10 06:03:09;;;;;;;9.68;2.83;;;;;;;7.57;62.49;99139.28;5090468;28;20095;-63
2021/12/10 06:05:37;;;;;;;7.38;2.67;;;;;;;7.72;61.67;99146.97;5072880;28;20039;-64
2021/12/10 06:08:04;;;;;;;8.73;2.35;;;;;;;7.55;61.88;99136.09;5089382;28;20047;-64
2021/12/10 06:10:30;;;;;;;13.00;2.87;;;;;;;7.25;62.84;99144.16;5089750;28;20048;-63
2021/12/10 06:12:56;;;;;;;11.32;2.90;;;;;;;7.71;61.69;99153.53;5089238;28;20039;-62
2021/12/10 06:15:23;;;;;;;12.30;2.75;;;;;;;7.47;62.19;99156.00;5090494;28;20028;-64
2021/12/10 06:17:49;;;;;;;7.80;1.97;;;;;;;7.63;62.13;99143.44;5089583;28;20041;-65
2021/12/10 06:20:19;;;;;;;8.98;2.22;;;;;;;7.57;62.81;99156.47;5090117;28;20080;-61
2021/12/10 06:22:44;;;;;;;8.02;2.22;;;;;;;7.14;63.21;99156.50;5090627;28;20024;-65
2021/12/10 06:25:10;;;;;;;4.53;2.15;;;;;;;7.76;61.77;99147.94;5089265;28;20054;-65
2021/12/10 06:27:44;;;;;;;8.00;2.28;;;;;;;7.49;62.50;99151.03;5090632;28;20025;-64
2021/12/10 06:30:17;;;;;;;6.88;2.08;;;;;;;7.34;63.58;99144.94;5073476;28;20091;-62
2021/12/10 06:32:45;;;;;;;5.93;2.17;;;;;;;7.24;64.08;99148.03;5090582;28;20050;-62
2021/12/10 06:35:13;;;;;;;6.85;2.35;;;;;;;7.90;61.79;99146.91;5089017;28;20038;-63
2021/12/10 06:37:39;;;;;;;9.35;3.03;;;;;;;7.46;62.42;99155.22;5090586;28;20041;-65
2021/12/10 06:40:09;;;;;;;6.68;2.38;;;;;;;7.52;63.53;99144.94;5091066;28;20036;-64
2021/12/10 06:42:35;;;;;;;9.10;3.42;;;;;;;7.94;61.91;99136.94;5093545;28;20028;-62
2021/12/10 06:45:04;;;;;;;11.55;3.35;;;;;;;7.71;62.52;99145.34;5092371;28;20031;-63
2021/12/10 06:47:30;;;;;;;8.25;3.13;;;;;;;7.26;63.68;99143.03;5092739;28;20036;-62
2021/12/10 06:49:56;;;;;;;7.30;2.55;;;;;;;7.35;63.90;99148.47;5093757;28;20101;-63
2021/12/10 06:52:21;;;;;;;7.25;3.20;;;;;;;7.26;63.89;99151.22;5092380;28;20139;-64
2021/12/10 06:54:47;;;;;;;9.30;2.70;;;;;;;7.44;63.83;99150.09;5092808;28;20115;-62
2021/12/10 06:57:12;;;;;;;8.77;2.80;;;;;;;7.39;63.34;99150.22;5093165;28;20013;-62
2021/12/10 06:59:38;;;;;;;9.25;3.03;;;;;;;7.67;62.43;99151.78;5093706;28;20037;-63
2021/12/10 07:02:03;;;;;;;9.68;3.03;;;;;;;8.00;61.73;99152.00;5093264;28;20036;-64
2021/12/10 07:04:29;;;;;;;9.30;3.33;;;;;;;8.29;60.79;99164.09;5092532;28;20028;-63
2021/12/10 07:06:55;;;;;;;12.82;3.17;;;;;;;8.16;61.15;99160.44;5092468;28;20021;-61
2021/12/10 07:09:23;;;;;;;9.48;3.25;;;;;;;7.66;62.48;99158.38;5092040;28;20036;-63
2021/12/10 07:11:50;;;;;;;10.65;3.25;;;;;;;7.93;61.09;99163.41;5092196;28;20048;-64
2021/12/10 07:14:16;;;;;;;6.97;2.53;;;;;;;7.61;61.91;99156.63;5092994;28;20031;-61
2021/12/10 07:16:42;;;;;;;9.50;2.72;;;;;;;8.32;60.18;99155.25;5092069;28;20068;-62
2021/12/10 07:19:08;;;;;;;7.72;2.97;;;;;;;8.65;58.58;99160.06;5091792;28;20029;-65
2021/12/10 07:21:35;;;;;;;10.88;2.88;;;;;;;8.53;59.27;99164.31;5093297;28;20025;-65
2021/12/10 07:24:05;;;;;;;10.77;2.83;;;;;;;8.08;60.24;99164.00;5093222;28;20029;-62
2021/12/10 07:26:31;;;;;;;7.90;2.38;;;;;;;8.00;60.81;99165.63;5092161;28;20465;-62
2021/12/10 07:28:57;;;;;;;8.55;3.20;;;;;;;8.15;60.53;99170.56;5093003;28;20054;-64
2021/12/10 07:31:23;;;;;;;6.35;2.33;;;;;;;8.41;59.46;99172.38;5092717;28;20059;-63
2021/12/10 07:33:48;;;;;;;10.15;3.10;;;;;;;8.49;59.47;99178.94;5091820;28;20020;-64
2021/12/10 07:36:15;;;;;;;10.40;3.00;;;;;;;7.91;60.85;99181.25;5092400;28;20724;-62
2021/12/10 07:38:41;;;;;;;7.10;3.17;;;;;;;7.40;62.90;99172.88;5092843;28;20054;-64
2021/12/10 07:41:07;;;;;;;9.80;3.30;;;;;;;7.84;62.09;99180.94;5092357;28;20278;-62
2021/12/10 07:43:33;;;;;;;11.38;2.80;;;;;;;8.22;61.06;99180.19;5092826;28;20086;-63
2021/12/10 07:45:59;;;;;;;8.88;2.92;;;;;;;8.05;61.79;99183.75;5092693;28;20079;-61
2021/12/10 07:48:27;;;;;;;8.65;3.47;;;;;;;8.08;61.37;99186.66;5091057;28;20440;-62
2021/12/10 07:51:04;;;;;;;8.20;3.03;;;;;;;7.71;63.13;99182.75;5091423;28;20028;-64
2021/12/10 07:53:31;;;;;;;9.07;3.40;;;;;;;7.88;62.12;99187.38;5092212;28;20077;-63
2021/12/10 07:56:01;;;;;;;10.57;3.50;;;;;;;8.31;61.11;99186.41;5092466;28;20032;-62
2021/12/10 07:58:27;;;;;;;8.57;3.60;;;;;;;7.82;62.77;99184.00;5092136;28;20271;-65
2021/12/10 08:00:53;;;;;;;14.77;3.55;;;;;;;7.42;63.74;99190.47;5092428;28;20059;-62
2021/12/10 08:03:19;;;;;;;9.95;3.20;;;;;;;7.71;63.35;99178.09;5091941;28;20020;-62
2021/12/10 08:05:45;;;;;;;12.80;3.70;;;;;;;7.77;63.09;99184.97;5092350;28;20099;-63
2021/12/10 08:08:11;;;;;;;10.80;3.80;;;;;;;7.93;62.62;99184.47;5091948;28;20029;-65
2021/12/10 08:10:39;;;;;;;11.80;3.70;;;;;;;8.33;61.46;99189.59;5092143;28;20036;-62
2021/12/10 08:13:05;;;;;;;9.05;3.63;;;;;;;8.26;61.28;99181.13;5092055;28;20033;-62
2021/12/10 08:15:31;;;;;;;12.45;4.32;;;;;;;8.80;59.77;99183.28;5091369;28;20048;-63
2021/12/10 08:17:57;;;;;;;11.82;3.90;;;;;;;8.22;61.31;99188.38;5091186;28;20051;-62
2021/12/10 08:20:25;;;;;;;13.00;5.05;;;;;;;8.37;61.08;99196.00;5090585;28;20039;-64
2021/12/10 08:22:52;;;;;;;12.95;5.75;;;;;;;8.24;61.24;99194.28;5074319;28;20032;-66
2021/12/10 08:25:20;;;;;;;13.52;4.82;;;;;;;8.67;60.10;99196.03;5091756;28;20040;-63
2021/12/10 08:27:46;;;;;;;10.07;4.78;;;;;;;9.07;58.91;99195.63;5091930;28;20028;-64
2021/12/10 08:30:16;;;;;;;12.50;4.05;;;;;;;9.19;58.42;99198.41;5091437;28;20039;-65
2021/12/10 08:32:43;;;;;;;17.58;6.65;;;;;;;8.85;59.37;99202.19;5090707;28;20027;-65
2021/12/10 08:35:12;;;;;;;14.23;6.05;;;;;;;9.12;58.65;99194.63;5091541;28;20024;-64
2021/12/10 08:37:38;;;;;;;11.45;5.88;;;;;;;8.52;59.81;99203.66;5091747;28;20028;-62
2021/12/10 08:40:07;;;;;;;11.75;4.38;;;;;;;8.53;60.21;99202.53;5090671;28;20049;-63
2021/12/10 08:42:33;;;;;;;15.57;4.25;;;;;;;8.40;60.05;99203.56;5089517;28;20036;-64
2021/12/10 08:44:58;;;;;;;11.50;3.63;;;;;;;8.27;60.80;99207.28;5090676;28;20092;-63
2021/12/10 08:47:24;;;;;;;9.25;3.78;;;;;;;7.94;61.72;99214.16;5073433;28;20036;-63
2021/12/10 08:49:49;;;;;;;7.80;3.65;;;;;;;8.77;59.96;99211.25;5090515;28;20037;-64
2021/12/10 08:52:15;;;;;;;14.70;3.95;;;;;;;8.46;60.51;99213.19;5081928;28;20033;-62
2021/12/10 08:54:42;;;;;;;14.68;4.22;;;;;;;8.77;59.78;99214.78;5070294;28;20024;-65
2021/12/10 08:57:08;;;;;;;14.63;4.60;;;;;;;8.71;60.28;99207.91;5070165;28;20032;-63
2021/12/10 08:59:34;;;;;;;9.77;3.92;;;;;;;8.93;59.59;99216.94;5075327;28;20033;-65
2021/12/10 09:02:02;;;;;;;12.43;3.63;;;;;;;8.40;61.13;99219.13;5072994;28;20029;-63
2021/12/10 09:04:30;;;;;;;9.88;4.80;;;;;;;8.55;60.94;99221.34;5080925;28;20036;-62
2021/12/10 09:07:02;;;;;;;11.00;4.10;;;;;;;8.43;61.54;99223.91;5074875;28;20060;-64
2021/12/10 09:09:30;;;;;;;11.77;4.30;;;;;;;7.95;62.10;99225.84;5083329;28;20020;-63
2021/12/10 09:11:59;;;;;;;9.18;4.30;;;;;;;8.60;60.85;99234.00;5074455;28;20017;-64
2021/12/10 09:14:30;;;;;;;10.10;4.50;;;;;;;8.97;59.50;99232.34;5076988;28;20035;-67
2021/12/10 09:16:58;;;;;;;12.90;4.80;;;;;;;9.04;58.96;99243.56;5076093;28;20064;-63
2021/12/10 09:19:24;;;;;;;7.40;4.30;;;;;;;9.30;59.16;99241.75;5080775;28;20021;-63
2021/12/10 09:21:50;;;;;;;11.32;4.20;;;;;;;8.86;59.95;99248.34;5083080;28;20035;-64
2021/12/10 09:24:20;;;;;;;17.38;5.65;;;;;;;9.37;58.67;99242.00;5078777;28;20057;-63
2021/12/10 09:26:48;;;;;;;17.20;5.78;;;;;;;9.04;58.95;99246.28;5076371;28;20017;-64
2021/12/10 09:29:14;;;;;;;;;;;;;;;9.67;57.78;99258.34;5075079;28;20020;-62
2021/12/10 09:31:42;;;;;;;10.87;5.47;;;;;;;9.30;58.75;99255.44;5075540;28;19913;-63
2021/12/10 09:34:09;;;;;;;17.52;6.80;;;;;;;9.00;59.16;99252.75;5060240;28;20283;-62
2021/12/10 09:36:35;;;;;;;14.68;5.05;;;;;;;9.51;58.09;99256.22;5077366;28;20033;-63
2021/12/10 09:39:04;;;;;;;7.95;3.65;;;;;;;8.91;59.51;99261.00;5084362;28;20092;-62
2021/12/10 09:41:29;;;;;;;13.00;3.55;;;;;;;9.60;57.79;99259.69;5067681;28;20021;-64
2021/12/10 09:43:55;;;;;;;11.02;4.63;;;;;;;9.61;57.67;99272.25;5077711;28;20056;-63
2021/12/10 09:46:20;;;;;;;11.73;5.15;;;;;;;9.70;57.41;99268.63;5081101;28;20485;-65
2021/12/10 09:48:48;;;;;;;13.73;4.20;;;;;;;9.62;57.24;99268.38;5077264;28;20033;-63
2021/12/10 09:51:19;;;;;;;11.00;3.97;;;;;;;10.11;56.21;99273.22;5073075;28;20028;-64
2021/12/10 09:53:48;;;;;;;8.93;3.72;;;;;;;9.59;57.38;99279.19;5076950;28;20024;-64
2021/12/10 09:56:17;;;;;;;11.38;3.75;;;;;;;9.04;59.34;99281.03;5075397;28;20024;-63
2021/12/10 09:58:43;;;;;;;11.93;4.32;;;;;;;8.94;59.74;99284.13;5072375;28;20045;-62
2021/12/10 10:01:13;;;;;;;14.15;4.05;;;;;;;8.82;59.84;99279.38;5071360;28;20043;-63
2021/12/10 10:03:41;;;;;;;14.50;4.50;;;;;;;8.68;60.23;99279.59;5070889;28;20033;-65
2021/12/10 10:06:08;;;;;;;13.75;4.15;;;;;;;9.24;58.75;99282.16;5070056;28;20025;-64
2021/12/10 10:08:35;;;;;;;13.35;4.38;;;;;;;9.19;58.69;99282.38;5069174;28;20032;-63
2021/12/10 10:11:07;;;;;;;12.00;4.00;;;;;;;9.29;59.20;99283.91;5070438;28;20089;-64
2021/12/10 10:13:36;;;;;;;13.60;4.50;;;;;;;9.33;58.40;99282.13;5069980;28;20055;-62
2021/12/10 10:16:03;;;;;;;10.20;4.03;;;;;;;9.44;58.03;99286.84;5073817;28;20037;-64
2021/12/10 10:18:34;;;;;;;13.77;3.95;;;;;;;9.07;58.96;99285.84;5073817;28;20047;-65
2021/12/10 10:21:10;;;;;;;10.73;3.97;;;;;;;9.47;57.88;99282.66;5072772;28;20092;-63
2021/12/10 10:23:38;;;;;;;13.20;4.38;;;;;;;9.42;58.13;99291.06;5073694;28;20084;-63
2021/12/10 10:26:07;;;;;;;12.65;3.97;;;;;;;9.16;59.09;99294.78;5076680;28;20027;-63
2021/12/10 10:28:33;;;;;;;10.35;3.70;;;;;;;9.78;57.26;99293.19;5081507;28;20032;-64
2021/12/10 10:31:05;;;;;;;13.52;3.85;;;;;;;10.05;56.89;99290.19;5070031;28;20033;-62
2021/12/10 10:33:34;;;;;;;9.02;3.83;;;;;;;9.88;57.19;99291.97;5074793;28;20048;-65
2021/12/10 10:36:05;;;;;;;10.52;4.40;;;;;;;8.96;59.54;99287.34;5075955;28;20056;-64
2021/12/10 10:38:31;;;;;;;11.35;4.70;;;;;;;10.02;56.99;99290.88;5081435;28;20013;-63
2021/12/10 10:41:04;;;;;;;9.45;4.32;;;;;;;9.71;57.59;99286.66;5079678;28;20054;-63
2021/12/10 10:43:30;;;;;;;12.23;4.30;;;;;;;10.02;57.13;99291.66;5085295;28;20052;-63
2021/12/10 10:45:56;;;;;;;20.08;4.95;;;;;;;9.38;58.29;99288.19;5082559;28;20025;-62
2021/12/10 10:48:22;;;;;;;14.65;4.80;;;;;;;10.29;55.92;99292.19;5083014;28;20036;-63
2021/12/10 10:51:02;;;;;;;12.38;5.03;;;;;;;10.13;56.15;99294.78;5082199;28;20032;-63
2021/12/10 10:53:32;;;;;;;10.80;4.75;;;;;;;9.49;58.26;99296.78;5076251;28;20025;-64
2021/12/10 10:56:00;;;;;;;18.67;5.10;;;;;;;9.55;58.17;99300.16;5078012;28;20036;-63
2021/12/10 10:58:30;;;;;;;11.95;5.18;;;;;;;8.76;60.05;99308.81;5077847;28;20040;-65
2021/12/10 11:01:03;;;;;;;13.07;4.82;;;;;;;9.31;58.42;99309.00;5087209;28;20032;-62
2021/12/10 11:03:42;;;;;;;15.35;5.90;;;;;;;9.13;59.08;99306.38;5076104;28;20023;-64
2021/12/10 11:06:20;;;;;;;12.75;5.18;;;;;;;9.63;57.94;99305.53;5081714;28;20024;-63
2021/12/10 11:08:49;;;;;;;13.15;5.38;;;;;;;9.59;57.78;99301.88;5080509;28;20025;-65
2021/12/10 11:11:19;;;;;;;12.15;5.40;;;;;;;10.36;56.03;99311.66;5076360;28;20029;-64
2021/12/10 11:13:51;;;;;;;11.95;5.40;;;;;;;10.34;56.05;99303.78;5081142;28;20017;-64
2021/12/10 11:16:20;;;;;;;13.15;5.55;;;;;;;9.97;56.52;99306.38;5079943;28;20038;-65
2021/12/10 11:18:56;;;;;;;17.40;6.15;;;;;;;9.95;57.28;99305.91;5072589;28;20028;-62
2021/12/10 11:21:52;;;;;;;13.77;5.43;;;;;;;10.16;56.37;99307.81;5088276;28;20040;-65
2021/12/10 11:24:46;;;;;;;15.85;6.95;;;;;;;10.18;56.82;99316.50;5073102;28;20028;-63
2021/12/10 11:27:18;;;;;;;16.55;6.63;;;;;;;10.22;56.43;99322.88;5065082;28;20128;-63
2021/12/10 11:30:02;;;;;;;12.77;5.97;;;;;;;10.06;56.92;99325.47;5071354;28;20051;-64
2021/12/10 11:32:39;;;;;;;17.15;7.90;;;;;;;9.99;57.24;99320.53;5072828;28;20029;-62
2021/12/10 11:35:08;;;;;;;14.63;7.30;;;;;;;9.79;58.10;99326.81;5072372;28;20025;-62
2021/12/10 11:37:54;;;;;;;15.18;6.10;;;;;;;10.39;56.52;99330.16;5072168;28;20272;-62
2021/12/10 11:40:44;;;;;;;19.50;7.95;;;;;;;10.50;56.39;99323.09;5071561;28;20088;-64
2021/12/10 11:43:32;;;;;;;15.60;6.53;;;;;;;10.15;56.94;99325.38;5072745;28;20039;-62
2021/12/10 11:48:46;;;;;;;17.85;7.20;;;;;;;11.11;54.27;99328.97;5071804;28;20060;-63
2021/12/10 11:51:17;;;;;;;17.48;7.22;;;;;;;10.27;56.23;99330.09;5071820;28;20032;-62
2021/12/10 11:53:56;;;;;;;15.75;7.05;;;;;;;11.03;54.24;99327.94;5072019;28;20057;-63